Terminal Aerodrome Forecast
Issued by NWS

Home | Current Version | Previous Version | Text Only | Print | Product List | Glossary On
Versions: 1 2 3 4 5 6 7 8 9 10 11 12 13 14 15 16 17 18 19 20
000
FTUS46 KSGX 220520
TAFCRQ
TAF
KCRQ 220520Z 2206/2306 VRB04KT P6SM SCT013
     FM220630 VRB04KT P6SM BKN011
     FM221600 VRB04KT P6SM SCT012
     FM222000 24008KT P6SM FEW012
     FM230100 VRB04KT P6SM SCT012
     FM230300 VRB04KT P6SM BKN011=

USA.gov is the U.S. government's official web portal to all federal, state and local government web resources and services.